Tiger — 9HA2271 — position and weather

sailwx.info

Track history (hours):
 
Tides and Currents Weather Stations Pressure Air Temp Water Temp Dewpoint Dewpoint Depression Visibility Wind Speed Wind Dir Waves Ship Positions

Tiger

Last reported at 2016-May-26 14:32 UTC. Time now 2016-May-30 10:42 UTC.
Position N 48°31' W 126°28'.

Length 228 m; draft 8.7 m.

Type: Cargo ship. MMSI: 248223000.

Date/timePositionNaut miles runAvg speedWind from/ knotsBaromVisibWave heightAir tempDewpointWater temp
2016-May-26 14:32N 48°31' W 126°28'1717.3
2016-May-26 13:33N 48°31' W 126°02'1717.3
2016-May-26 12:33N 48°31' W 125°35'1717.4
2016-May-26 11:33N 48°31' W 125°09'4417.8
2016-May-26 09:03N 48°20' W 124°04'918.5
2016-May-26 08:33N 48°17' W 123°51'1817.5
2016-May-26 07:32N 48°12' W 123°25'1212.3
2016-May-26 06:33N 48°12' W 123°07'1917.3
2016-May-26 05:27N 48°07' W 122°40'1415.9
2016-May-26 04:32N 47°55' W 122°29'1414.4
2016-May-26 03:33N 47°41' W 122°27'1413.8
2016-May-26 02:34N 47°27' W 122°24'1010.2
2016-May-26 01:33N 47°17' W 122°25'2 0.2
2016-May-25 14:28N 47°16' W 122°23'1 1.5
2016-May-25 13:32N 47°17' W 122°25'3 3.3
2016-May-25 12:33N 47°19' W 122°28'1211.7
2016-May-25 11:34N 47°31' W 122°26'1616.1
2016-May-25 10:34N 47°47' W 122°27'1817.6
2016-May-25 09:33N 48°03' W 122°39'1616.3
2016-May-25 08:33N 48°12' W 122°59'1813.4
2016-May-25 07:13N 48°11' W 123°26'811.3
2016-May-25 06:32N 48°13' W 123°37'1313.0
2016-May-25 05:30N 48°14' W 123°57'4313.4
2016-May-25 02:17N 48°28' W 124°58'1216.2
2016-May-25 01:33N 48°25' W 125°15'1616.4
2016-May-25 00:33N 48°16' W 125°35'1715.9
2016-May-24 23:31N 48°06' W 125°55'  
2016-May-21 07:20N 33°29' W 118°48'4014.4
2016-May-21 04:33N 32°58' W 118°18'1515.0
2016-May-21 03:33N 32°47' W 118°05'1514.8
2016-May-21 02:33N 32°36' W 117°54'1514.9
2016-May-21 01:33N 32°22' W 117°48'  
Track history (hours):
 
Tides and Currents Weather Stations Pressure Air Temp Water Temp Dewpoint Dewpoint Depression Visibility Wind Speed Wind Dir Waves Ship Positions

Tiger

Last reported at 2016-May-26 14:32 UTC. Time now 2016-May-30 10:42 UTC.
Position N 48°31' W 126°28'.

Length 228 m; draft 8.7 m.

Type: Cargo ship. MMSI: 248223000.

Date/timePositionNaut miles runAvg speedWind from/ knotsBaromVisibWave heightAir tempDewpointWater temp
2016-May-26 14:32N 48°31' W 126°28'1717.3
2016-May-26 13:33N 48°31' W 126°02'1717.3
2016-May-26 12:33N 48°31' W 125°35'1717.4
2016-May-26 11:33N 48°31' W 125°09'4417.8
2016-May-26 09:03N 48°20' W 124°04'918.5
2016-May-26 08:33N 48°17' W 123°51'1817.5
2016-May-26 07:32N 48°12' W 123°25'1212.3
2016-May-26 06:33N 48°12' W 123°07'1917.3
2016-May-26 05:27N 48°07' W 122°40'1415.9
2016-May-26 04:32N 47°55' W 122°29'1414.4
2016-May-26 03:33N 47°41' W 122°27'1413.8
2016-May-26 02:34N 47°27' W 122°24'1010.2
2016-May-26 01:33N 47°17' W 122°25'2 0.2
2016-May-25 14:28N 47°16' W 122°23'1 1.5
2016-May-25 13:32N 47°17' W 122°25'3 3.3
2016-May-25 12:33N 47°19' W 122°28'1211.7
2016-May-25 11:34N 47°31' W 122°26'1616.1
2016-May-25 10:34N 47°47' W 122°27'1817.6
2016-May-25 09:33N 48°03' W 122°39'1616.3
2016-May-25 08:33N 48°12' W 122°59'1813.4
2016-May-25 07:13N 48°11' W 123°26'811.3
2016-May-25 06:32N 48°13' W 123°37'1313.0
2016-May-25 05:30N 48°14' W 123°57'4313.4
2016-May-25 02:17N 48°28' W 124°58'1216.2
2016-May-25 01:33N 48°25' W 125°15'1616.4
2016-May-25 00:33N 48°16' W 125°35'1715.9
2016-May-24 23:31N 48°06' W 125°55'  
2016-May-21 07:20N 33°29' W 118°48'4014.4
2016-May-21 04:33N 32°58' W 118°18'1515.0
2016-May-21 03:33N 32°47' W 118°05'1514.8
2016-May-21 02:33N 32°36' W 117°54'1514.9
2016-May-21 01:33N 32°22' W 117°48'  

Dump ship's entire track history